Time;durP1;ratioP1;P1;durP2;ratioP2;P2;SDS_P1;SDS_P2;PMS_P1;PMS_P2;Temp;Humidity;BMP_temperature;BMP_pressure;BME280_temperature;BME280_humidity;BME280_pressure;Samples;Min_cycle;Max_cycle;Signal;HPM_P1;HPM_P2
2023/09/02 00:00:49;;;;;;;;;;;;;;;12.93;100.00;101781.22;5027750;28;19943;-84
2023/09/02 00:03:35;;;;;;;;;;;;;;;12.92;100.00;101778.63;5014939;28;20294;-83
2023/09/02 00:06:22;;;;;;;;;;;;;;;12.93;100.00;101780.34;5019890;28;19924;-83
2023/09/02 00:09:07;;;;;;;;;;;;;;;12.92;100.00;101778.63;4975347;28;20290;-82
2023/09/02 00:11:53;;;;;;;;;;;;;;;12.90;100.00;101771.56;5036877;28;19940;-82
2023/09/02 00:14:41;;;;;;;;;;;;;;;12.89;100.00;101768.97;5034810;28;20000;-83
2023/09/02 00:17:26;;;;;;;;;;;;;;;12.88;100.00;101767.25;4990076;28;19932;-83
2023/09/02 00:20:12;;;;;;;;;;;;;;;12.88;100.00;101773.44;4992592;28;20723;-83
2023/09/02 00:22:58;;;;;;;;;;;;;;;12.86;100.00;101772.63;5035561;28;19964;-83
2023/09/02 00:25:46;;;;;;;;;;;;;;;12.86;100.00;101767.31;5031260;28;19932;-83
2023/09/02 00:28:32;;;;;;;;;;;;;;;12.85;100.00;101770.88;5018501;28;20027;-82
2023/09/02 00:31:17;;;;;;;;;;;;;;;12.84;100.00;101779.78;5031227;28;19929;-82
2023/09/02 00:34:03;;;;;;;;;;;;;;;12.83;100.00;101778.06;5031483;28;20002;-83
2023/09/02 00:36:51;;;;;;;;;;;;;;;12.82;100.00;101781.66;5035184;28;19933;-82
2023/09/02 00:39:37;;;;;;;;;;;;;;;12.82;100.00;101780.78;5031164;28;20326;-83
2023/09/02 00:42:25;;;;;;;;;;;;;;;12.80;100.00;101785.28;4989589;28;20538;-83
2023/09/02 00:45:11;;;;;;;;;;;;;;;12.77;100.00;101786.28;4984499;28;19930;-83
2023/09/02 00:47:59;;;;;;;;;;;;;;;12.74;100.00;101779.28;5032651;28;19932;-81
2023/09/02 00:50:45;;;;;;;;;;;;;;;12.74;100.00;101789.03;5015589;28;20002;-82
2023/09/02 00:53:31;;;;;;;;;;;;;;;12.73;100.00;101782.88;5029038;28;19929;-83
2023/09/02 00:56:17;;;;;;;;;;;;;;;12.71;100.00;101778.56;5029981;28;19932;-83
2023/09/02 00:59:03;;;;;;;;;;;;;;;12.71;100.00;101783.88;5013377;28;19929;-84
2023/09/02 01:01:56;;;;;;;;;;;;;;;12.72;100.00;101785.59;5026434;28;19928;-82
2023/09/02 01:04:51;;;;;;;;;;;;;;;12.71;100.00;101792.72;5023792;28;20623;-82
2023/09/02 01:07:37;;;;;;;;;;;;;;;12.73;100.00;101787.31;5027597;28;20032;-83
2023/09/02 01:10:23;;;;;;;;;;;;;;;12.72;100.00;101785.59;4984398;28;19933;-82
2023/09/02 01:13:09;;;;;;;;;;;;;;;12.73;100.00;101787.31;5027905;28;19940;-83
2023/09/02 01:15:54;;;;;;;;;;;;;;;12.72;100.00;101786.47;5031455;28;19928;-83
2023/09/02 01:18:40;;;;;;;;;;;;;;;12.72;100.00;101793.56;5031638;28;19923;-83
2023/09/02 01:21:39;;;;;;;;;;;;;;;12.70;100.00;101787.44;5016817;28;19959;-82
2023/09/02 01:24:37;;;;;;;;;;;;;;;12.69;100.00;101780.41;5007007;28;19984;-83
2023/09/02 01:27:23;;;;;;;;;;;;;;;12.68;100.00;101786.66;5032311;28;19935;-82
2023/09/02 01:30:08;;;;;;;;;;;;;;;12.68;100.00;101781.34;5028432;28;19931;-81
2023/09/02 01:32:54;;;;;;;;;;;;;;;12.69;100.00;101785.72;5029253;28;20012;-82
2023/09/02 01:35:42;;;;;;;;;;;;;;;12.67;100.00;101790.22;5029789;28;19939;-82
2023/09/02 01:38:31;;;;;;;;;;;;;;;12.63;100.00;101787.69;5003288;28;20415;-84
2023/09/02 01:41:16;;;;;;;;;;;;;;;12.62;100.00;101793.06;5026794;28;20019;-82
2023/09/02 01:44:02;;;;;;;;;;;;;;;12.60;100.00;101792.25;5031000;28;19971;-82
2023/09/02 01:46:48;;;;;;;;;;;;;;;12.58;100.00;101794.97;5028481;28;19925;-83
2023/09/02 01:49:34;;;;;;;;;;;;;;;12.56;100.00;101791.50;5024922;28;19925;-83
2023/09/02 01:52:22;;;;;;;;;;;;;;;12.55;100.00;101799.53;5004319;28;20402;-84
2023/09/02 01:55:08;;;;;;;;;;;;;;;12.52;100.00;101797.84;4981535;28;20052;-82
2023/09/02 01:57:58;;;;;;;;;;;;;;;12.50;100.00;101797.91;5029413;28;20458;-82
2023/09/02 02:00:43;;;;;;;;;;;;;;;12.50;100.00;101794.41;5026104;28;20016;-82
2023/09/02 02:03:41;;;;;;;;;;;;;;;12.50;100.00;101802.38;5015920;28;20082;-83
2023/09/02 02:06:27;;;;;;;;;;;;;;;12.50;100.00;101802.38;5013892;28;19978;-83
2023/09/02 02:09:13;;;;;;;;;;;;;;;12.51;100.00;101796.13;5031133;28;19935;-82
2023/09/02 02:11:59;;;;;;;;;;;;;;;12.54;100.00;101801.34;5018834;28;20064;-81
2023/09/02 02:14:47;;;;;;;;;;;;;;;12.59;100.00;101809.13;5033284;28;20067;-82
2023/09/02 02:17:35;;;;;;;;;;;;;;;12.62;100.00;101812.53;5029297;28;19998;-82
2023/09/02 02:20:21;;;;;;;;;;;;;;;12.62;100.00;101811.66;4985552;28;19930;-83
2023/09/02 02:23:07;;;;;;;;;;;;;;;12.61;100.00;101812.56;5015302;28;19975;-82
2023/09/02 02:25:52;;;;;;;;;;;;;;;12.59;100.00;101807.31;4986897;28;19935;-81
2023/09/02 02:28:38;;;;;;;;;;;;;;;12.59;100.00;101801.16;5030062;28;20840;-82
2023/09/02 02:31:24;;;;;;;;;;;;;;;12.58;100.00;101808.25;5029559;28;19928;-83
2023/09/02 02:34:10;;;;;;;;;;;;;;;12.57;100.00;101813.59;5024648;28;19933;-82
2023/09/02 02:36:55;;;;;;;;;;;;;;;12.56;100.00;101809.22;5027095;28;20030;-82
2023/09/02 02:39:41;;;;;;;;;;;;;;;12.56;100.00;101820.72;5028015;28;20707;-82
2023/09/02 02:42:27;;;;;;;;;;;;;;;12.53;100.00;101817.31;4986143;28;19955;-82
2023/09/02 02:45:16;;;;;;;;;;;;;;;12.50;100.00;101815.66;4998568;28;19943;-83
2023/09/02 02:48:02;;;;;;;;;;;;;;;12.47;100.00;101823.72;5030011;28;19964;-82
2023/09/02 02:50:48;;;;;;;;;;;;;;;12.44;100.00;101826.50;5016644;28;19937;-83
2023/09/02 02:53:36;;;;;;;;;;;;;;;12.38;100.00;101819.66;5016463;28;20257;-82
2023/09/02 02:56:22;;;;;;;;;;;;;;;12.36;100.00;101821.47;5031383;28;20467;-82
2023/09/02 02:59:13;;;;;;;;;;;;;;;12.36;100.00;101822.34;5014635;28;19920;-83
2023/09/02 03:01:58;;;;;;;;;;;;;;;12.37;100.00;101828.53;5027231;28;19928;-82
2023/09/02 03:04:48;;;;;;;;;;;;;;;12.36;100.00;101821.47;5028093;28;22009;-83
2023/09/02 03:07:33;;;;;;;;;;;;;;;12.35;100.00;101820.63;5029162;28;20023;-83
2023/09/02 03:10:19;;;;;;;;;;;;;;;12.36;100.00;101821.47;5003277;28;20351;-81
2023/09/02 03:13:05;;;;;;;;;;;;;;;12.36;100.00;101818.81;5027995;28;19960;-83
2023/09/02 03:15:51;;;;;;;;;;;;;;;12.34;100.00;101818.91;5015444;28;19936;-83
2023/09/02 03:18:37;;;;;;;;;;;;;;;12.34;100.00;101808.28;5003175;28;19929;-82
2023/09/02 03:21:23;;;;;;;;;;;;;;;12.35;100.00;101817.09;5014715;28;19929;-82
2023/09/02 03:24:11;;;;;;;;;;;;;;;12.36;100.00;101822.34;4972830;28;19938;-82
2023/09/02 03:26:57;;;;;;;;;;;;;;;12.38;100.00;101826.72;5026276;28;20287;-83
2023/09/02 03:29:42;;;;;;;;;;;;;;;12.40;100.00;101835.50;5030835;28;19933;-83
2023/09/02 03:32:28;;;;;;;;;;;;;;;12.43;100.00;101830.09;5014688;28;19935;-81
2023/09/02 03:35:13;;;;;;;;;;;;;;;12.45;100.00;101833.53;5026740;28;19972;-83
2023/09/02 03:37:59;;;;;;;;;;;;;;;12.45;100.00;101838.84;5030414;28;19940;-82
2023/09/02 03:40:46;;;;;;;;;;;;;;;12.40;100.00;101828.41;5031308;28;19940;-82
2023/09/02 03:43:32;;;;;;;;;;;;;;;12.38;100.00;101824.94;5031083;28;19933;-82
2023/09/02 03:46:18;;;;;;;;;;;;;;;12.36;100.00;101830.31;5030777;28;19972;-82
2023/09/02 03:49:04;;;;;;;;;;;;;;;12.35;100.00;101843.63;5016577;28;20016;-82
2023/09/02 03:51:50;;;;;;;;;;;;;;;12.33;100.00;101843.69;5026690;28;19933;-83
2023/09/02 03:54:36;;;;;;;;;;;;;;;12.31;100.00;101842.88;4992236;28;19932;-82
2023/09/02 03:57:22;;;;;;;;;;;;;;;12.30;100.00;101851.78;5029411;28;19933;-83
2023/09/02 04:00:08;;;;;;;;;;;;;;;12.28;100.00;101853.63;5027454;28;20520;-82
2023/09/02 04:02:53;;;;;;;;;;;;;;;12.25;100.00;101847.56;4994667;28;19980;-81
2023/09/02 04:05:42;;;;;;;;;;;;;;;12.21;100.00;101845.00;4987559;28;20000;-82
2023/09/02 04:08:34;;;;;;;;;;;;;;;12.20;100.00;101851.25;5030156;28;19929;-81
2023/09/02 04:11:19;;;;;;;;;;;;;;;12.17;100.00;101846.06;5028913;28;19963;-84
2023/09/02 04:14:08;;;;;;;;;;;;;;;12.17;100.00;101834.56;5028814;28;19932;-83
2023/09/02 04:16:54;;;;;;;;;;;;;;;12.14;100.00;101832.88;4988801;28;19996;-82
2023/09/02 04:19:42;;;;;;;;;;;;;;;12.14;100.00;101838.19;4983280;28;19982;-82
2023/09/02 04:22:28;;;;;;;;;;;;;;;12.13;100.00;101840.91;4971224;28;19929;-83
2023/09/02 04:25:15;;;;;;;;;;;;;;;12.09;100.00;101848.97;5012636;28;19928;-82
2023/09/02 04:28:00;;;;;;;;;;;;;;;12.07;100.00;101834.91;5028325;28;20023;-83
2023/09/02 04:30:46;;;;;;;;;;;;;;;12.06;100.00;101846.44;5026462;28;19944;-83
2023/09/02 04:33:33;;;;;;;;;;;;;;;12.06;100.00;101850.88;5003241;28;20445;-82
2023/09/02 04:36:19;;;;;;;;;;;;;;;12.07;100.00;101869.41;5027550;28;19990;-84
2023/09/02 04:39:04;;;;;;;;;;;;;;;12.10;100.00;101868.44;5030271;28;20026;-83
2023/09/02 04:41:50;;;;;;;;;;;;;;;12.11;100.00;101872.81;5030990;28;19925;-82
2023/09/02 04:44:36;;;;;;;;;;;;;;;12.11;100.00;101885.22;5014125;28;20354;-83
2023/09/02 04:47:22;;;;;;;;;;;;;;;12.11;100.00;101885.22;5027122;28;20062;-83
2023/09/02 04:50:07;;;;;;;;;;;;;;;12.11;100.00;101879.91;5031014;28;19929;-83
2023/09/02 04:52:53;;;;;;;;;;;;;;;12.09;100.00;101882.59;5017261;28;19936;-82
2023/09/02 04:55:40;;;;;;;;;;;;;;;12.08;100.00;101892.38;5017492;28;19929;-83
2023/09/02 04:58:29;;;;;;;;;;;;;;;12.06;100.00;101885.38;5029156;28;19944;-82
2023/09/02 05:01:15;;;;;;;;;;;;;;;12.04;100.00;101890.75;5013929;28;20007;-82
2023/09/02 05:04:03;;;;;;;;;;;;;;;12.02;100.00;101889.03;5021336;28;19964;-82
2023/09/02 05:06:49;;;;;;;;;;;;;;;11.99;100.00;101899.75;5031395;28;20455;-82
2023/09/02 05:09:38;;;;;;;;;;;;;;;11.99;100.00;101897.97;5029372;28;22110;-81
2023/09/02 05:12:33;;;;;;;;;;;;;;;12.01;100.00;101903.22;5029554;28;19929;-82
2023/09/02 05:15:19;;;;;;;;;;;;;;;12.01;100.00;101906.75;4986055;28;19931;-83
2023/09/02 05:18:04;;;;;;;;;;;;;;;12.01;100.00;101909.41;5026738;28;19929;-82
2023/09/02 05:20:53;;;;;;;;;;;;;;;11.97;100.00;101910.41;5026677;28;19925;-83
2023/09/02 05:23:41;;;;;;;;;;;;;;;11.95;100.00;101913.13;5028393;28;19929;-82
2023/09/02 05:26:27;;;;;;;;;;;;;;;11.92;100.00;101909.69;5026641;28;19933;-83
2023/09/02 05:29:15;;;;;;;;;;;;;;;11.90;100.00;101911.56;4996722;28;20309;-84
2023/09/02 05:32:00;;;;;;;;;;;;;;;11.88;100.00;101910.75;5028362;28;19987;-82
2023/09/02 05:34:46;;;;;;;;;;;;;;;11.86;100.00;101909.91;5027346;28;20039;-82
2023/09/02 05:37:32;;;;;;;;;;;;;;;11.83;100.00;101902.94;5023991;28;19924;-81
2023/09/02 05:40:17;;;;;;;;;;;;;;;11.81;100.00;101910.06;5030711;28;20363;-83
2023/09/02 05:43:10;;;;;;;;;;;;;;;11.80;100.00;101909.22;5031163;28;19929;-82
2023/09/02 05:46:03;;;;;;;;;;;;;;;11.82;100.00;101927.72;5024792;28;20672;-82
2023/09/02 05:48:48;;;;;;;;;;;;;;;11.83;100.00;101929.47;5013024;28;19932;-82
2023/09/02 05:51:34;;;;;;;;;;;;;;;11.86;100.00;101932.03;5012013;28;20323;-83
2023/09/02 05:54:20;;;;;;;;;;;;;;;11.89;100.00;101931.06;4999324;28;19934;-83
2023/09/02 05:57:05;;;;;;;;;;;;;;;11.93;100.00;101930.03;5030496;28;20816;-82
2023/09/02 05:59:54;;;;;;;;;;;;;;;11.99;100.00;101931.59;5031690;28;19956;-83
2023/09/02 06:02:43;;;;;;;;;;;;;;;12.05;100.00;101945.56;4992629;28;21468;-83
2023/09/02 06:05:29;;;;;;;;;;;;;;;12.13;100.00;101942.66;5027130;28;19929;-84
2023/09/02 06:08:15;;;;;;;;;;;;;;;12.18;100.00;101953.09;5027201;28;19921;-84
2023/09/02 06:11:01;;;;;;;;;;;;;;;12.25;100.00;101959.09;5028318;28;20094;-82
2023/09/02 06:13:47;;;;;;;;;;;;;;;12.30;100.00;101960.66;5001309;28;19935;-83
2023/09/02 06:16:32;;;;;;;;;;;;;;;12.36;100.00;101963.09;4982677;28;21589;-84
2023/09/02 06:19:20;;;;;;;;;;;;;;;12.45;100.00;101971.66;5028737;28;19936;-83
2023/09/02 06:22:06;;;;;;;;;;;;;;;12.51;100.00;101968.78;5024159;28;19978;-83
2023/09/02 06:24:55;;;;;;;;;;;;;;;12.60;100.00;101979.06;5028550;28;19929;-84
2023/09/02 06:27:40;;;;;;;;;;;;;;;12.69;100.00;101974.34;5029862;28;19928;-84
2023/09/02 06:30:26;;;;;;;;;;;;;;;12.77;100.00;101981.09;5031046;28;19932;-84
2023/09/02 06:33:15;;;;;;;;;;;;;;;12.86;100.00;101977.25;5029088;28;19956;-82
2023/09/02 06:36:08;;;;;;;;;;;;;;;12.97;100.00;101987.47;4983683;28;20462;-85
2023/09/02 06:38:56;;;;;;;;;;;;;;;13.15;100.00;101991.25;5008135;28;19940;-84
2023/09/02 06:41:42;;;;;;;;;;;;;;;13.38;100.00;101996.59;5033971;28;19983;-83
2023/09/02 06:44:28;;;;;;;;;;;;;;;13.56;100.00;101995.03;5013801;28;19932;-82
2023/09/02 06:47:14;;;;;;;;;;;;;;;13.75;100.00;102000.50;5032042;28;19928;-84
2023/09/02 06:49:59;;;;;;;;;;;;;;;13.92;100.00;101991.81;5020871;28;19933;-85
2023/09/02 06:52:45;;;;;;;;;;;;;;;14.07;100.00;101989.44;5019291;28;19940;-86
2023/09/02 06:55:31;;;;;;;;;;;;;;;14.19;100.00;101999.59;5034326;28;20260;-84
2023/09/02 06:58:16;;;;;;;;;;;;;;;14.29;100.00;101993.84;5005445;28;20439;-85
2023/09/02 07:01:02;;;;;;;;;;;;;;;14.37;100.00;101991.72;5034266;28;19932;-85
2023/09/02 07:03:48;;;;;;;;;;;;;;;14.46;100.00;101994.00;5034159;28;20387;-84
2023/09/02 07:06:39;;;;;;;;;;;;;;;14.58;100.00;101999.69;5023287;28;19929;-85
2023/09/02 07:09:27;;;;;;;;;;;;;;;14.71;100.00;101995.56;5017398;28;19951;-85
2023/09/02 07:12:13;;;;;;;;;;;;;;;14.83;100.00;101995.97;5031064;28;19976;-85
2023/09/02 07:14:58;;;;;;;;;;;;;;;14.92;100.00;102004.44;5021655;28;20094;-87
2023/09/02 07:17:46;;;;;;;;;;;;;;;15.02;100.00;102002.22;5038777;28;19935;-90
2023/09/02 07:20:34;;;;;;;;;;;;;;;15.15;100.00;102002.50;5018545;28;20019;-95
2023/09/02 07:23:20;;;;;;;;;;;;;;;15.26;100.00;102007.31;5032449;28;19939;-94
2023/09/02 07:26:06;;;;;;;;;;;;;;;15.36;100.00;102006.91;5042468;28;20258;-96
2023/09/02 07:28:51;;;;;;;;;;;;;;;15.44;100.00;102016.28;5024732;28;19932;-92
2023/09/02 07:31:37;;;;;;;;;;;;;;;15.53;100.00;102017.63;5003108;28;19928;-91
2023/09/02 07:34:23;;;;;;;;;;;;;;;15.63;100.00;102025.22;5040497;28;20295;-96
2023/09/02 07:37:09;;;;;;;;;;;;;;;15.70;100.00;102027.50;5033124;28;19977;-92
2023/09/02 07:39:54;;;;;;;;;;;;;;;15.78;100.00;102028.94;5036203;28;20019;-90
2023/09/02 07:42:50;;;;;;;;;;;;;;;15.85;100.00;102031.22;5039343;28;19928;-90
2023/09/02 07:45:36;;;;;;;;;;;;;;;15.91;100.00;102037.22;5022175;28;20395;-90
2023/09/02 07:48:21;;;;;;;;;;;;;;;15.95;100.00;102052.19;5037715;28;19956;-93
2023/09/02 07:51:07;;;;;;;;;;;;;;;16.01;100.00;102043.84;5025550;28;21825;-86
2023/09/02 07:53:53;;;;;;;;;;;;;;;16.07;100.00;102048.88;5015700;28;19936;-83
2023/09/02 07:56:38;;;;;;;;;;;;;;;16.15;100.00;102049.41;5028976;28;19929;-83
2023/09/02 07:59:26;;;;;;;;;;;;;;;16.25;100.00;102049.78;5034759;28;20015;-83
2023/09/02 08:02:12;;;;;;;;;;;;;;;16.35;100.00;102044.81;5033039;28;19939;-84
2023/09/02 08:04:57;;;;;;;;;;;;;;;16.47;100.00;102047.81;5028541;28;20454;-83
2023/09/02 08:07:44;;;;;;;;;;;;;;;16.58;100.00;102057.97;5034593;28;19928;-84
2023/09/02 08:10:30;;;;;;;;;;;;;;;16.69;100.00;102059.13;5026908;28;19950;-82
2023/09/02 08:13:32;;;;;;;;;;;;;;;;;;;;;
2023/09/02 08:16:20;;;;;;;;;;;;;;;16.93;100.00;102065.94;5031968;28;20362;-82
2023/09/02 08:19:06;;;;;;;;;;;;;;;17.04;100.00;102076.97;5030966;28;19931;-83
2023/09/02 08:21:52;;;;;;;;;;;;;;;17.16;100.00;102082.63;5030723;28;19968;-83
2023/09/02 08:24:38;;;;;;;;;;;;;;;17.28;100.00;102076.59;5032128;28;19939;-83
2023/09/02 08:27:25;;;;;;;;;;;;;;;17.37;100.00;102091.28;5029671;28;21167;-82
2023/09/02 08:30:11;;;;;;;;;;;;;;;17.45;100.00;102091.75;5018787;28;19975;-83
2023/09/02 08:32:56;;;;;;;;;;;;;;;17.55;100.00;102091.22;5031295;28;19960;-82
2023/09/02 08:35:42;;;;;;;;;;;;;;;17.63;100.00;102100.56;5034571;28;19983;-83
2023/09/02 08:38:28;;;;;;;;;;;;;;;17.76;100.00;102100.72;5000125;28;19940;-82
2023/09/02 08:41:17;;;;;;;;;;;;;;;17.89;100.00;102092.88;5030658;28;21818;-81
2023/09/02 08:44:03;;;;;;;;;;;;;;;18.02;100.00;102097.50;5031385;28;19936;-83
2023/09/02 08:46:50;;;;;;;;;;;;;;;18.13;100.00;102105.84;5019001;28;19960;-82
2023/09/02 08:49:36;;;;;;;;;;;;;;;18.21;100.00;102108.09;5031069;28;19939;-85
2023/09/02 08:52:22;;;;;;;;;;;;;;;18.30;100.00;102118.25;5027102;28;19931;-83
2023/09/02 08:55:08;;;;;;;;;;;;;;;18.40;100.00;102123.94;5015226;28;19928;-83
2023/09/02 08:57:54;;;;;;;;;;;;;;;18.51;100.00;102126.00;5017187;28;20007;-82
2023/09/02 09:00:40;;;;;;;;;;;;;;;18.62;100.00;102133.41;5028623;28;20000;-82
2023/09/02 09:03:29;;;;;;;;;;;;;;;18.70;100.00;102124.91;5024671;28;19929;-82
2023/09/02 09:06:15;;;;;;;;;;;;;;;18.78;100.00;102127.13;5027808;28;19929;-83
2023/09/02 09:09:01;;;;;;;;;;;;;;;18.92;100.00;102137.03;5031653;28;19975;-84
2023/09/02 09:11:47;;;;;;;;;;;;;;;19.03;100.00;102137.28;5031638;28;19935;-83
2023/09/02 09:14:33;;;;;;;;;;;;;;;19.19;100.00;102142.56;5034690;28;20055;-83
2023/09/02 09:17:24;;;;;;;;;;;;;;;19.30;100.00;102144.59;5019592;28;20019;-83
2023/09/02 09:20:10;;;;;;;;;;;;;;;19.36;100.00;102144.19;5007641;28;19924;-85
2023/09/02 09:22:56;;;;;;;;;;;;;;;19.44;100.00;102151.75;5032158;28;19925;-83
2023/09/02 09:25:44;;;;;;;;;;;;;;;19.46;100.00;102155.22;5031077;28;19925;-83
2023/09/02 09:28:47;;;;;;;;;;;;;;;19.48;100.00;102155.13;5040053;28;20703;-95
2023/09/02 09:31:33;;;;;;;;;;;;;;;19.50;100.00;102155.91;5049979;28;19921;-94
2023/09/02 09:34:34;;;;;;;;;;;;;;;19.49;100.00;102156.84;5051431;28;19929;-94
2023/09/02 09:37:25;;;;;;;;;;;;;;;19.50;100.00;102156.75;5030694;28;19974;-95
2023/09/02 09:40:11;;;;;;;;;;;;;;;19.54;100.00;102157.41;5005075;28;20408;-92
2023/09/02 09:42:57;;;;;;;;;;;;;;;19.59;100.00;102168.72;5048944;28;20021;-95
2023/09/02 09:45:53;;;;;;;;;;;;;;;19.70;100.00;102172.53;5048597;28;20395;-94
2023/09/02 09:48:44;;;;;;;;;;;;;;;19.80;100.00;102174.59;5046338;28;20763;-94
2023/09/02 09:51:30;;;;;;;;;;;;;;;19.83;100.00;102176.19;5028019;28;19928;-95
2023/09/02 09:54:22;;;;;;;;;;;;;;;19.79;100.00;102177.34;5023559;28;20011;-83
2023/09/02 09:57:14;;;;;;;;;;;;;;;19.77;100.00;102180.13;4988498;28;19937;-83
2023/09/02 10:00:00;;;;;;;;;;;;;;;19.70;100.00;102173.44;5003140;28;19931;-84
2023/09/02 10:02:52;;;;;;;;;;;;;;;19.64;100.00;102179.19;5006962;28;19971;-84
2023/09/02 10:05:38;;;;;;;;;;;;;;;19.54;100.00;102185.16;5037134;28;19928;-84
2023/09/02 10:08:24;;;;;;;;;;;;;;;19.46;100.00;102178.53;5012307;28;20061;-84
2023/09/02 10:11:21;;;;;;;;;;;;;;;19.41;100.00;102179.66;5035926;28;19929;-83
2023/09/02 10:14:07;;;;;;;;;;;;;;;19.29;100.00;102191.19;4964538;28;20020;-84
2023/09/02 10:16:55;;;;;;;;;;;;;;;19.21;100.00;102188.06;5037006;28;20478;-84
2023/09/02 10:19:41;;;;;;;;;;;;;;;19.11;100.00;102188.66;5037275;28;20011;-84
2023/09/02 10:22:29;;;;;;;;;;;;;;;19.06;100.00;102193.44;4994087;28;19996;-84
2023/09/02 10:25:24;;;;;;;;;;;;;;;19.02;100.00;102189.22;5023845;28;20011;-84
2023/09/02 10:28:11;;;;;;;;;;;;;;;19.02;100.00;102204.41;5005829;28;20308;-89
2023/09/02 10:30:56;;;;;;;;;;;;;;;19.03;100.00;102198.13;5024720;28;20283;-85
2023/09/02 10:33:45;;;;;;;;;;;;;;;19.05;100.00;102205.13;5013051;28;19929;-87
2023/09/02 10:36:32;;;;;;;;;;;;;;;19.01;100.00;102203.53;4995657;28;19956;-85
2023/09/02 10:39:22;;;;;;;;;;;;;;;19.03;100.00;102201.69;5026763;28;20019;-86
2023/09/02 10:42:10;;;;;;;;;;;;;;;19.12;100.00;102206.47;5025602;28;19959;-84
2023/09/02 10:44:56;;;;;;;;;;;;;;;19.29;100.00;102211.78;5019507;28;20284;-84
2023/09/02 10:47:42;;;;;;;;;;;;;;;19.37;100.00;102215.72;5024070;28;21870;-85
2023/09/02 10:50:29;;;;;;;;;;;;;;;19.41;100.00;102221.78;5038202;28;19929;-84
2023/09/02 10:53:15;;;;;;;;;;;;;;;19.37;100.00;102226.47;5032712;28;19929;-86
2023/09/02 10:56:01;;;;;;;;;;;;;;;19.30;100.00;102225.13;5017670;28;20020;-85
2023/09/02 10:58:47;;;;;;;;;;;;;;;19.23;100.00;102219.25;5014931;28;19931;-84
2023/09/02 11:01:49;;;;;;;;;;;;;;;19.18;100.00;102215.97;4998571;28;20019;-84
2023/09/02 11:04:59;;;;;;;;;;;;;;;19.23;100.00;102218.41;5037699;28;19951;-83
2023/09/02 11:07:45;;;;;;;;;;;;;;;19.20;100.00;102210.50;5004613;28;19929;-85
2023/09/02 11:10:49;;;;;;;;;;;;;;;19.16;100.00;102211.69;5037578;28;20461;-82
2023/09/02 11:13:55;;;;;;;;;;;;;;;19.15;100.00;102210.81;5005374;28;19930;-84
2023/09/02 11:16:42;;;;;;;;;;;;;;;19.16;100.00;102215.22;5002541;28;20679;-85
2023/09/02 11:19:47;;;;;;;;;;;;;;;19.18;100.00;102215.97;5024615;28;19934;-82
2023/09/02 11:22:51;;;;;;;;;;;;;;;19.26;100.00;102223.56;5029803;28;20590;-82
2023/09/02 11:25:38;;;;;;;;;;;;;;;19.32;100.00;102223.19;5025264;28;19997;-82
2023/09/02 11:28:27;;;;;;;;;;;;;;;19.34;100.00;102225.78;5026794;28;19932;-84
2023/09/02 11:31:13;;;;;;;;;;;;;;;19.41;100.00;102233.34;5026548;28;19928;-84
2023/09/02 11:33:58;;;;;;;;;;;;;;;19.45;100.00;102227.81;4999800;28;19983;-85
2023/09/02 11:36:47;;;;;;;;;;;;;;;19.47;100.00;102225.91;5009973;28;19939;-83
2023/09/02 11:39:33;;;;;;;;;;;;;;;19.48;100.00;102224.94;5017243;28;19929;-83
2023/09/02 11:42:19;;;;;;;;;;;;;;;19.52;100.00;102229.16;5026962;28;19929;-84
2023/09/02 11:45:04;;;;;;;;;;;;;;;19.52;100.00;102223.78;5001277;28;19960;-85
2023/09/02 11:47:50;;;;;;;;;;;;;;;19.57;100.00;102232.44;5000449;28;20463;-85
2023/09/02 11:50:42;;;;;;;;;;;;;;;19.58;100.00;102241.34;4997222;28;19929;-90
2023/09/02 11:53:28;;;;;;;;;;;;;;;19.45;100.00;102239.41;5016076;28;20018;-87
2023/09/02 11:56:24;;;;;;;;;;;;;;;19.41;100.00;102244.09;5028314;28;19929;-89
2023/09/02 11:59:22;;;;;;;;;;;;;;;19.35;100.00;102233.72;5006472;28;20024;-90
2023/09/02 12:02:16;;;;;;;;;;;;;;;19.34;99.82;102237.38;5026671;28;19936;-89
2023/09/02 12:05:04;;;;;;;;;;;;;;;19.37;100.00;102245.25;4983568;28;20393;-92
2023/09/02 12:07:51;;;;;;;;;;;;;;;19.39;100.00;102237.97;5001486;28;19929;-88
2023/09/02 12:10:44;;;;;;;;;;;;;;;19.35;100.00;102247.16;5028365;28;19940;-88
2023/09/02 12:13:30;;;;;;;;;;;;;;;19.32;100.00;102236.63;4984669;28;19974;-85
2023/09/02 12:16:16;;;;;;;;;;;;;;;19.28;100.00;102229.69;5029479;28;19937;-85
2023/09/02 12:19:02;;;;;;;;;;;;;;;19.30;100.00;102226.94;5039709;28;19924;-88
2023/09/02 12:21:50;;;;;;;;;;;;;;;19.26;100.00;102224.44;5039849;28;19986;-90
2023/09/02 12:24:42;;;;;;;;;;;;;;;19.24;100.00;102226.34;5026147;28;20020;-89
2023/09/02 12:27:30;;;;;;;;;;;;;;;19.24;100.00;102230.84;5024590;28;21681;-89
2023/09/02 12:30:25;;;;;;;;;;;;;;;19.29;100.00;102223.41;5025845;28;19948;-87
2023/09/02 12:33:11;;;;;;;;;;;;;;;19.29;100.00;102227.88;5033320;28;19933;-88
2023/09/02 12:35:59;;;;;;;;;;;;;;;19.33;100.00;102227.59;4988260;28;19927;-90
2023/09/02 12:38:49;;;;;;;;;;;;;;;19.40;100.00;102222.75;5008365;28;19937;-86
2023/09/02 12:41:38;;;;;;;;;;;;;;;19.37;100.00;102226.47;5016821;28;19976;-88
2023/09/02 12:44:24;;;;;;;;;;;;;;;19.41;100.00;102228.00;5014936;28;19929;-87
2023/09/02 12:47:09;;;;;;;;;;;;;;;19.44;100.00;102224.25;5014707;28;19983;-88
2023/09/02 12:49:55;;;;;;;;;;;;;;;19.41;100.00;102221.78;5002986;28;19929;-87
2023/09/02 12:52:41;;;;;;;;;;;;;;;19.39;100.00;102229.91;5016363;28;19979;-89
2023/09/02 12:55:27;;;;;;;;;;;;;;;19.38;100.00;102232.69;5008439;28;19929;-87
2023/09/02 12:58:13;;;;;;;;;;;;;;;19.36;100.00;102237.28;5012811;28;20003;-88
2023/09/02 13:01:04;;;;;;;;;;;;;;;19.39;100.00;102229.06;5000958;28;20024;-93
2023/09/02 13:03:49;;;;;;;;;;;;;;;19.41;100.00;102233.34;5004314;28;20289;-85
2023/09/02 13:06:37;;;;;;;;;;;;;;;19.34;100.00;102232.00;5010978;28;20050;-87
2023/09/02 13:09:23;;;;;;;;;;;;;;;19.23;99.27;102226.44;5003127;28;20427;-87
2023/09/02 13:12:09;;;;;;;;;;;;;;;19.16;100.00;102217.03;5014161;28;20373;-86
2023/09/02 13:14:55;;;;;;;;;;;;;;;19.13;100.00;102229.66;5015014;28;19933;-89
2023/09/02 13:17:41;;;;;;;;;;;;;;;19.13;100.00;102229.66;5015544;28;20020;-88
2023/09/02 13:20:35;;;;;;;;;;;;;;;19.13;100.00;102226.16;5005104;28;20399;-88
2023/09/02 13:23:21;;;;;;;;;;;;;;;19.10;100.00;102224.50;5012595;28;20358;-87
2023/09/02 13:26:08;;;;;;;;;;;;;;;19.11;100.00;102230.72;5003406;28;19929;-85
2023/09/02 13:28:53;;;;;;;;;;;;;;;19.16;100.00;102233.16;5018660;28;19929;-89
2023/09/02 13:31:40;;;;;;;;;;;;;;;19.21;100.00;102228.34;5016624;28;19930;-88
2023/09/02 13:34:30;;;;;;;;;;;;;;;19.25;99.45;102229.91;5018402;28;19921;-89
2023/09/02 13:37:19;;;;;;;;;;;;;;;19.23;100.00;102229.97;5005461;28;19925;-90
2023/09/02 13:40:19;;;;;;;;;;;;;;;19.22;97.26;102239.00;5023770;28;19924;-90
2023/09/02 13:43:18;;;;;;;;;;;;;;;19.21;97.66;102241.75;5022384;28;19936;-95
2023/09/02 13:46:06;;;;;;;;;;;;;;;19.23;97.14;102246.09;5024378;28;19976;-90
2023/09/02 13:48:52;;;;;;;;;;;;;;;19.22;97.19;102230.06;5040197;28;19933;-87
2023/09/02 13:51:38;;;;;;;;;;;;;;;19.27;98.76;102233.34;5037188;28;19940;-88
2023/09/02 13:54:24;;;;;;;;;;;;;;;19.27;98.55;102234.22;5037751;28;19941;-89
2023/09/02 13:57:10;;;;;;;;;;;;;;;19.29;96.83;102239.50;5037151;28;19968;-90
2023/09/02 13:59:56;;;;;;;;;;;;;;;19.31;99.22;102240.25;5033915;28;19960;-88
2023/09/02 14:02:42;;;;;;;;;;;;;;;19.29;96.64;102241.31;5019430;28;20391;-88
2023/09/02 14:05:27;;;;;;;;;;;;;;;19.25;95.87;102246.00;5035769;28;19932;-89
2023/09/02 14:08:17;;;;;;;;;;;;;;;19.24;97.22;102252.34;5031749;28;20019;-87
2023/09/02 14:11:03;;;;;;;;;;;;;;;19.25;97.72;102262.13;5033837;28;19920;-88